Back to Top

Language: 

My Weather Underground Personal Weather Station Historical Data with Graphs...

Delerius Weather Station Historical Data
Daily Summary for January 25, 2017 Units:  Both    English   Metric
« Previous Day
Next Day »
Daily Weekly Monthly Yearly Custom
  High: Low: Average:
Temperature: 46.3 °F /  7.9 °C 36.1 °F /  2.3 °C 40.5 °F /  4.7 °C
Dew Point: 39.5 °F /  4.2 °C 33.7 °F /  0.9 °C 37.1 °F /  2.8 °C
Humidity: 96 % 71 % 88 %
Wind Speed: 12.0 mph /  19.3 km/h - 4.8 mph /  7.7 km/h
Wind Gust: -999.0 mph /  -1607.7 km/h - -
Wind:- - South
Pressure: 30.28 in /  1025.3 hPa 30.21 in /  1022.9 hPa -
Precipitation: 0.00 in /  0 mm    
Historical Graphs
 
 
Tabular Data for January 25, 2017
Time Temperature Dew Point Pressure Wind Wind Speed Wind Gust Humidity Rainfall Rate (Hourly) solar Conditions
00:01 40.8 °F /  4.9 °C 39.5 °F /  4.2 °C 30.26 in /  1024.6 hPa South 1.0 mph /  1.6 km/h -999.0 mph /  -1607.7 km/h 95 % 0.00 in /  0 mm 0 W/m2
00:06 40.8 °F /  4.9 °C 39.5 °F /  4.2 °C 30.26 in /  1024.6 hPa South 1.0 mph /  1.6 km/h -999.0 mph /  -1607.7 km/h 95 % 0.00 in /  0 mm 0 W/m2
00:11 40.8 °F /  4.9 °C 39.5 °F /  4.2 °C 30.26 in /  1024.6 hPa South 1.0 mph /  1.6 km/h -999.0 mph /  -1607.7 km/h 95 % 0.00 in /  0 mm 0 W/m2
00:16 40.8 °F /  4.9 °C 39.5 °F /  4.2 °C 30.26 in /  1024.6 hPa South 1.0 mph /  1.6 km/h -999.0 mph /  -1607.7 km/h 95 % 0.00 in /  0 mm 0 W/m2
00:21 40.8 °F /  4.9 °C 39.5 °F /  4.2 °C 30.26 in /  1024.6 hPa South 1.0 mph /  1.6 km/h -999.0 mph /  -1607.7 km/h 95 % 0.00 in /  0 mm 0 W/m2
00:26 40.5 °F /  4.7 °C 39.2 °F /  4 °C 30.26 in /  1024.6 hPa Calm   -999.0 mph /  -1607.7 km/h 95 % 0.00 in /  0 mm 0 W/m2
00:31 40.5 °F /  4.7 °C 39.2 °F /  4 °C 30.26 in /  1024.6 hPa Calm   -999.0 mph /  -1607.7 km/h 95 % 0.00 in /  0 mm 0 W/m2
00:36 40.5 °F /  4.7 °C 39.2 °F /  4 °C 30.26 in /  1024.6 hPa Calm   -999.0 mph /  -1607.7 km/h 95 % 0.00 in /  0 mm 0 W/m2
00:41 40.5 °F /  4.7 °C 39.2 °F /  4 °C 30.25 in /  1024.3 hPa South 1.0 mph /  1.6 km/h -999.0 mph /  -1607.7 km/h 95 % 0.00 in /  0 mm 0 W/m2
00:46 40.5 °F /  4.7 °C 39.2 °F /  4 °C 30.25 in /  1024.3 hPa South 1.0 mph /  1.6 km/h -999.0 mph /  -1607.7 km/h 95 % 0.00 in /  0 mm 0 W/m2
00:51 40.5 °F /  4.7 °C 39.2 °F /  4 °C 30.25 in /  1024.3 hPa South 1.0 mph /  1.6 km/h -999.0 mph /  -1607.7 km/h 95 % 0.00 in /  0 mm 0 W/m2
00:56 40.6 °F /  4.8 °C 39.3 °F /  4.1 °C 30.25 in /  1024.3 hPa SSE 4.0 mph /  6.4 km/h -999.0 mph /  -1607.7 km/h 95 % 0.00 in /  0 mm 0 W/m2
01:01 40.6 °F /  4.8 °C 39.3 °F /  4.1 °C 30.25 in /  1024.3 hPa SSE 4.0 mph /  6.4 km/h -999.0 mph /  -1607.7 km/h 95 % 0.00 in /  0 mm 0 W/m2
01:06 40.6 °F /  4.8 °C 39.3 °F /  4.1 °C 30.25 in /  1024.3 hPa SSE 4.0 mph /  6.4 km/h -999.0 mph /  -1607.7 km/h 95 % 0.00 in /  0 mm 0 W/m2
01:11 40.5 °F /  4.7 °C 39.2 °F /  4 °C 30.25 in /  1024.3 hPa South 4.0 mph /  6.4 km/h -999.0 mph /  -1607.7 km/h 95 % 0.00 in /  0 mm 0 W/m2
01:16 40.5 °F /  4.7 °C 39.2 °F /  4 °C 30.25 in /  1024.3 hPa South 4.0 mph /  6.4 km/h -999.0 mph /  -1607.7 km/h 95 % 0.00 in /  0 mm 0 W/m2
01:21 40.5 °F /  4.7 °C 39.2 °F /  4 °C 30.25 in /  1024.3 hPa South 4.0 mph /  6.4 km/h -999.0 mph /  -1607.7 km/h 95 % 0.00 in /  0 mm 0 W/m2
01:26 40.7 °F /  4.8 °C 39.4 °F /  4.1 °C 30.25 in /  1024.3 hPa SSE 3.0 mph /  4.8 km/h -999.0 mph /  -1607.7 km/h 95 % 0.00 in /  0 mm 0 W/m2
01:31 40.7 °F /  4.8 °C 39.4 °F /  4.1 °C 30.25 in /  1024.3 hPa SSE 3.0 mph /  4.8 km/h -999.0 mph /  -1607.7 km/h 95 % 0.00 in /  0 mm 0 W/m2
01:36 40.7 °F /  4.8 °C 39.4 °F /  4.1 °C 30.25 in /  1024.3 hPa SSE 3.0 mph /  4.8 km/h -999.0 mph /  -1607.7 km/h 95 % 0.00 in /  0 mm 0 W/m2
01:41 40.6 °F /  4.8 °C 39.3 °F /  4.1 °C 30.24 in /  1023.9 hPa SE 3.0 mph /  4.8 km/h -999.0 mph /  -1607.7 km/h 95 % 0.00 in /  0 mm 0 W/m2
01:46 40.6 °F /  4.8 °C 39.3 °F /  4.1 °C 30.24 in /  1023.9 hPa SE 3.0 mph /  4.8 km/h -999.0 mph /  -1607.7 km/h 95 % 0.00 in /  0 mm 0 W/m2
01:51 40.6 °F /  4.8 °C 39.3 °F /  4.1 °C 30.24 in /  1023.9 hPa SE 3.0 mph /  4.8 km/h -999.0 mph /  -1607.7 km/h 95 % 0.00 in /  0 mm 0 W/m2
01:56 40.4 °F /  4.7 °C 39.1 °F /  3.9 °C 30.25 in /  1024.3 hPa SE 1.0 mph /  1.6 km/h -999.0 mph /  -1607.7 km/h 95 % 0.00 in /  0 mm 0 W/m2
02:01 40.4 °F /  4.7 °C 39.1 °F /  3.9 °C 30.25 in /  1024.3 hPa SE 1.0 mph /  1.6 km/h -999.0 mph /  -1607.7 km/h 95 % 0.00 in /  0 mm 0 W/m2
02:06 40.4 °F /  4.7 °C 39.1 °F /  3.9 °C 30.25 in /  1024.3 hPa SE 1.0 mph /  1.6 km/h -999.0 mph /  -1607.7 km/h 95 % 0.00 in /  0 mm 0 W/m2
02:11 40.5 °F /  4.7 °C 39.2 °F /  4 °C 30.25 in /  1024.3 hPa SSW 3.0 mph /  4.8 km/h -999.0 mph /  -1607.7 km/h 95 % 0.00 in /  0 mm 0 W/m2
02:16 40.5 °F /  4.7 °C 39.2 °F /  4 °C 30.25 in /  1024.3 hPa SSW 3.0 mph /  4.8 km/h -999.0 mph /  -1607.7 km/h 95 % 0.00 in /  0 mm 0 W/m2
02:21 40.5 °F /  4.7 °C 39.2 °F /  4 °C 30.25 in /  1024.3 hPa SSW 3.0 mph /  4.8 km/h -999.0 mph /  -1607.7 km/h 95 % 0.00 in /  0 mm 0 W/m2
02:26 41.0 °F /  5 °C 39.4 °F /  4.1 °C 30.25 in /  1024.3 hPa SW 4.0 mph /  6.4 km/h -999.0 mph /  -1607.7 km/h 94 % 0.00 in /  0 mm 0 W/m2
02:31 41.0 °F /  5 °C 39.4 °F /  4.1 °C 30.25 in /  1024.3 hPa SW 4.0 mph /  6.4 km/h -999.0 mph /  -1607.7 km/h 94 % 0.00 in /  0 mm 0 W/m2
02:36 41.0 °F /  5 °C 39.4 °F /  4.1 °C 30.25 in /  1024.3 hPa SW 4.0 mph /  6.4 km/h -999.0 mph /  -1607.7 km/h 94 % 0.00 in /  0 mm 0 W/m2
02:41 41.2 °F /  5.1 °C 39.3 °F /  4.1 °C 30.25 in /  1024.3 hPa SW 3.0 mph /  4.8 km/h -999.0 mph /  -1607.7 km/h 93 % 0.00 in /  0 mm 0 W/m2
02:46 41.2 °F /  5.1 °C 39.3 °F /  4.1 °C 30.25 in /  1024.3 hPa SW 3.0 mph /  4.8 km/h -999.0 mph /  -1607.7 km/h 93 % 0.00 in /  0 mm 0 W/m2
02:51 41.2 °F /  5.1 °C 39.3 °F /  4.1 °C 30.25 in /  1024.3 hPa SW 3.0 mph /  4.8 km/h -999.0 mph /  -1607.7 km/h 93 % 0.00 in /  0 mm 0 W/m2
02:56 41.0 °F /  5 °C 39.1 °F /  3.9 °C 30.25 in /  1024.3 hPa SSW 1.0 mph /  1.6 km/h -999.0 mph /  -1607.7 km/h 93 % 0.00 in /  0 mm 0 W/m2
03:01 41.0 °F /  5 °C 39.1 °F /  3.9 °C 30.25 in /  1024.3 hPa SSW 1.0 mph /  1.6 km/h -999.0 mph /  -1607.7 km/h 93 % 0.00 in /  0 mm 0 W/m2
03:06 41.0 °F /  5 °C 39.1 °F /  3.9 °C 30.25 in /  1024.3 hPa SSW 1.0 mph /  1.6 km/h -999.0 mph /  -1607.7 km/h 93 % 0.00 in /  0 mm 0 W/m2
03:11 40.4 °F /  4.7 °C 38.8 °F /  3.8 °C 30.25 in /  1024.3 hPa Calm   -999.0 mph /  -1607.7 km/h 94 % 0.00 in /  0 mm 0 W/m2
03:16 40.4 °F /  4.7 °C 38.8 °F /  3.8 °C 30.25 in /  1024.3 hPa Calm   -999.0 mph /  -1607.7 km/h 94 % 0.00 in /  0 mm 0 W/m2
03:21 40.4 °F /  4.7 °C 38.8 °F /  3.8 °C 30.25 in /  1024.3 hPa Calm   -999.0 mph /  -1607.7 km/h 94 % 0.00 in /  0 mm 0 W/m2
03:26 40.1 °F /  4.5 °C 38.5 °F /  3.6 °C 30.26 in /  1024.6 hPa ESE 1.0 mph /  1.6 km/h -999.0 mph /  -1607.7 km/h 94 % 0.00 in /  0 mm 0 W/m2
03:31 40.1 °F /  4.5 °C 38.5 °F /  3.6 °C 30.26 in /  1024.6 hPa ESE 1.0 mph /  1.6 km/h -999.0 mph /  -1607.7 km/h 94 % 0.00 in /  0 mm 0 W/m2
03:36 40.1 °F /  4.5 °C 38.5 °F /  3.6 °C 30.26 in /  1024.6 hPa ESE 1.0 mph /  1.6 km/h -999.0 mph /  -1607.7 km/h 94 % 0.00 in /  0 mm 0 W/m2
03:41 39.6 °F /  4.2 °C 37.7 °F /  3.2 °C 30.26 in /  1024.6 hPa ESE 1.0 mph /  1.6 km/h -999.0 mph /  -1607.7 km/h 93 % 0.00 in /  0 mm 0 W/m2
03:46 39.6 °F /  4.2 °C 37.7 °F /  3.2 °C 30.26 in /  1024.6 hPa ESE 1.0 mph /  1.6 km/h -999.0 mph /  -1607.7 km/h 93 % 0.00 in /  0 mm 0 W/m2
03:51 39.6 °F /  4.2 °C 37.7 °F /  3.2 °C 30.26 in /  1024.6 hPa ESE 1.0 mph /  1.6 km/h -999.0 mph /  -1607.7 km/h 93 % 0.00 in /  0 mm 0 W/m2
03:56 39.2 °F /  4 °C 37.6 °F /  3.1 °C 30.26 in /  1024.6 hPa SE 4.0 mph /  6.4 km/h -999.0 mph /  -1607.7 km/h 94 % 0.00 in /  0 mm 0 W/m2
04:01 39.2 °F /  4 °C 37.6 °F /  3.1 °C 30.26 in /  1024.6 hPa SE 4.0 mph /  6.4 km/h -999.0 mph /  -1607.7 km/h 94 % 0.00 in /  0 mm 0 W/m2
04:06 39.2 °F /  4 °C 37.6 °F /  3.1 °C 30.26 in /  1024.6 hPa SE 4.0 mph /  6.4 km/h -999.0 mph /  -1607.7 km/h 94 % 0.00 in /  0 mm 0 W/m2
04:11 39.2 °F /  4 °C 37.9 °F /  3.3 °C 30.25 in /  1024.3 hPa South 2.0 mph /  3.2 km/h -999.0 mph /  -1607.7 km/h 95 % 0.00 in /  0 mm 0 W/m2
04:16 39.2 °F /  4 °C 37.9 °F /  3.3 °C 30.25 in /  1024.3 hPa South 2.0 mph /  3.2 km/h -999.0 mph /  -1607.7 km/h 95 % 0.00 in /  0 mm 0 W/m2
04:21 39.2 °F /  4 °C 37.9 °F /  3.3 °C 30.25 in /  1024.3 hPa South 2.0 mph /  3.2 km/h -999.0 mph /  -1607.7 km/h 95 % 0.00 in /  0 mm 0 W/m2
04:26 39.5 °F /  4.2 °C 38.2 °F /  3.4 °C 30.25 in /  1024.3 hPa South 4.0 mph /  6.4 km/h -999.0 mph /  -1607.7 km/h 95 % 0.00 in /  0 mm 0 W/m2
04:31 39.5 °F /  4.2 °C 38.2 °F /  3.4 °C 30.25 in /  1024.3 hPa South 4.0 mph /  6.4 km/h -999.0 mph /  -1607.7 km/h 95 % 0.00 in /  0 mm 0 W/m2
04:36 39.5 °F /  4.2 °C 38.2 °F /  3.4 °C 30.25 in /  1024.3 hPa South 4.0 mph /  6.4 km/h -999.0 mph /  -1607.7 km/h 95 % 0.00 in /  0 mm 0 W/m2
04:41 39.4 °F /  4.1 °C 37.8 °F /  3.2 °C 30.25 in /  1024.3 hPa SSE 3.0 mph /  4.8 km/h -999.0 mph /  -1607.7 km/h 94 % 0.00 in /  0 mm 0 W/m2
04:46 39.4 °F /  4.1 °C 37.8 °F /  3.2 °C 30.25 in /  1024.3 hPa SSE 3.0 mph /  4.8 km/h -999.0 mph /  -1607.7 km/h 94 % 0.00 in /  0 mm 0 W/m2
04:51 39.4 °F /  4.1 °C 37.8 °F /  3.2 °C 30.25 in /  1024.3 hPa SSE 3.0 mph /  4.8 km/h -999.0 mph /  -1607.7 km/h 94 % 0.00 in /  0 mm 0 W/m2
04:56 39.0 °F /  3.9 °C 37.4 °F /  3 °C 30.25 in /  1024.3 hPa SE 4.0 mph /  6.4 km/h -999.0 mph /  -1607.7 km/h 94 % 0.00 in /  0 mm 0 W/m2
05:01 39.0 °F /  3.9 °C 37.4 °F /  3 °C 30.25 in /  1024.3 hPa SE 4.0 mph /  6.4 km/h -999.0 mph /  -1607.7 km/h 94 % 0.00 in /  0 mm 0 W/m2
05:06 39.0 °F /  3.9 °C 37.4 °F /  3 °C 30.25 in /  1024.3 hPa SE 4.0 mph /  6.4 km/h -999.0 mph /  -1607.7 km/h 94 % 0.00 in /  0 mm 0 W/m2
05:11 38.5 °F /  3.6 °C 36.9 °F /  2.7 °C 30.25 in /  1024.3 hPa SE 3.0 mph /  4.8 km/h -999.0 mph /  -1607.7 km/h 94 % 0.00 in /  0 mm 0 W/m2
05:16 38.5 °F /  3.6 °C 36.9 °F /  2.7 °C 30.25 in /  1024.3 hPa SE 3.0 mph /  4.8 km/h -999.0 mph /  -1607.7 km/h 94 % 0.00 in /  0 mm 0 W/m2
05:21 38.5 °F /  3.6 °C 36.9 °F /  2.7 °C 30.25 in /  1024.3 hPa SE 3.0 mph /  4.8 km/h -999.0 mph /  -1607.7 km/h 94 % 0.00 in /  0 mm 0 W/m2
05:26 38.0 °F /  3.3 °C 36.7 °F /  2.6 °C 30.25 in /  1024.3 hPa ESE 3.0 mph /  4.8 km/h -999.0 mph /  -1607.7 km/h 95 % 0.00 in /  0 mm 0 W/m2
05:31 38.0 °F /  3.3 °C 36.7 °F /  2.6 °C 30.25 in /  1024.3 hPa ESE 3.0 mph /  4.8 km/h -999.0 mph /  -1607.7 km/h 95 % 0.00 in /  0 mm 0 W/m2
05:36 38.0 °F /  3.3 °C 36.7 °F /  2.6 °C 30.25 in /  1024.3 hPa ESE 3.0 mph /  4.8 km/h -999.0 mph /  -1607.7 km/h 95 % 0.00 in /  0 mm 0 W/m2
05:41 37.7 °F /  3.2 °C 36.4 °F /  2.4 °C 30.25 in /  1024.3 hPa East 3.0 mph /  4.8 km/h -999.0 mph /  -1607.7 km/h 95 % 0.00 in /  0 mm 0 W/m2
05:46 37.7 °F /  3.2 °C 36.4 °F /  2.4 °C 30.25 in /  1024.3 hPa East 3.0 mph /  4.8 km/h -999.0 mph /  -1607.7 km/h 95 % 0.00 in /  0 mm 0 W/m2
05:51 37.7 °F /  3.2 °C 36.4 °F /  2.4 °C 30.25 in /  1024.3 hPa East 3.0 mph /  4.8 km/h -999.0 mph /  -1607.7 km/h 95 % 0.00 in /  0 mm 0 W/m2
05:56 37.5 °F /  3.1 °C 36.2 °F /  2.3 °C 30.25 in /  1024.3 hPa ESE 2.0 mph /  3.2 km/h -999.0 mph /  -1607.7 km/h 95 % 0.00 in /  0 mm 0 W/m2
06:01 37.5 °F /  3.1 °C 36.2 °F /  2.3 °C 30.25 in /  1024.3 hPa ESE 2.0 mph /  3.2 km/h -999.0 mph /  -1607.7 km/h 95 % 0.00 in /  0 mm 0 W/m2
06:06 37.5 °F /  3.1 °C 36.2 °F /  2.3 °C 30.25 in /  1024.3 hPa ESE 2.0 mph /  3.2 km/h -999.0 mph /  -1607.7 km/h 95 % 0.00 in /  0 mm 0 W/m2
06:11 37.2 °F /  2.9 °C 36.2 °F /  2.3 °C 30.25 in /  1024.3 hPa SSE 3.0 mph /  4.8 km/h -999.0 mph /  -1607.7 km/h 96 % 0.00 in /  0 mm 0 W/m2
06:16 37.2 °F /  2.9 °C 36.2 °F /  2.3 °C 30.25 in /  1024.3 hPa SSE 3.0 mph /  4.8 km/h -999.0 mph /  -1607.7 km/h 96 % 0.00 in /  0 mm 0 W/m2
06:21 37.2 °F /  2.9 °C 36.2 °F /  2.3 °C 30.25 in /  1024.3 hPa SSE 3.0 mph /  4.8 km/h -999.0 mph /  -1607.7 km/h 96 % 0.00 in /  0 mm 0 W/m2
06:26 37.7 °F /  3.2 °C 36.4 °F /  2.4 °C 30.25 in /  1024.3 hPa SSE 4.0 mph /  6.4 km/h -999.0 mph /  -1607.7 km/h 95 % 0.00 in /  0 mm 0 W/m2
06:31 37.7 °F /  3.2 °C 36.4 °F /  2.4 °C 30.25 in /  1024.3 hPa SSE 4.0 mph /  6.4 km/h -999.0 mph /  -1607.7 km/h 95 % 0.00 in /  0 mm 0 W/m2
06:36 37.7 °F /  3.2 °C 36.4 °F /  2.4 °C 30.25 in /  1024.3 hPa SSE 4.0 mph /  6.4 km/h -999.0 mph /  -1607.7 km/h 95 % 0.00 in /  0 mm 0 W/m2
06:41 37.4 °F /  3 °C 36.1 °F /  2.3 °C 30.25 in /  1024.3 hPa SE 3.0 mph /  4.8 km/h -999.0 mph /  -1607.7 km/h 95 % 0.00 in /  0 mm 0 W/m2
06:46 37.4 °F /  3 °C 36.1 °F /  2.3 °C 30.25 in /  1024.3 hPa SE 3.0 mph /  4.8 km/h -999.0 mph /  -1607.7 km/h 95 % 0.00 in /  0 mm 0 W/m2
06:51 37.4 °F /  3 °C 36.1 °F /  2.3 °C 30.25 in /  1024.3 hPa SE 3.0 mph /  4.8 km/h -999.0 mph /  -1607.7 km/h 95 % 0.00 in /  0 mm 0 W/m2
06:56 36.9 °F /  2.7 °C 35.9 °F /  2.2 °C 30.25 in /  1024.3 hPa South 1.0 mph /  1.6 km/h -999.0 mph /  -1607.7 km/h 96 % 0.00 in /  0 mm 0 W/m2
07:01 36.9 °F /  2.7 °C 35.9 °F /  2.2 °C 30.25 in /  1024.3 hPa South 1.0 mph /  1.6 km/h -999.0 mph /  -1607.7 km/h 96 % 0.00 in /  0 mm 0 W/m2
07:06 36.9 °F /  2.7 °C 35.9 °F /  2.2 °C 30.25 in /  1024.3 hPa South 1.0 mph /  1.6 km/h -999.0 mph /  -1607.7 km/h 96 % 0.00 in /  0 mm 0 W/m2
07:11 37.3 °F /  2.9 °C 36.3 °F /  2.4 °C 30.25 in /  1024.3 hPa SSE 3.0 mph /  4.8 km/h -999.0 mph /  -1607.7 km/h 96 % 0.00 in /  0 mm 0 W/m2
07:16 37.3 °F /  2.9 °C 36.3 °F /  2.4 °C 30.25 in /  1024.3 hPa SSE 3.0 mph /  4.8 km/h -999.0 mph /  -1607.7 km/h 96 % 0.00 in /  0 mm 0 W/m2
07:21 37.3 °F /  2.9 °C 36.3 °F /  2.4 °C 30.25 in /  1024.3 hPa SSE 3.0 mph /  4.8 km/h -999.0 mph /  -1607.7 km/h 96 % 0.00 in /  0 mm 0 W/m2
07:26 37.3 °F /  2.9 °C 36.3 °F /  2.4 °C 30.25 in /  1024.3 hPa SSW 3.0 mph /  4.8 km/h -999.0 mph /  -1607.7 km/h 96 % 0.00 in /  0 mm 0 W/m2
07:31 37.3 °F /  2.9 °C 36.3 °F /  2.4 °C 30.25 in /  1024.3 hPa SSW 3.0 mph /  4.8 km/h -999.0 mph /  -1607.7 km/h 96 % 0.00 in /  0 mm 0 W/m2
07:36 37.3 °F /  2.9 °C 36.3 °F /  2.4 °C 30.25 in /  1024.3 hPa SSW 3.0 mph /  4.8 km/h -999.0 mph /  -1607.7 km/h 96 % 0.00 in /  0 mm 0 W/m2
07:41 37.7 °F /  3.2 °C 36.7 °F /  2.6 °C 30.25 in /  1024.3 hPa SSW 5.0 mph /  8 km/h -999.0 mph /  -1607.7 km/h 96 % 0.00 in /  0 mm 0 W/m2
07:46 37.7 °F /  3.2 °C 36.7 °F /  2.6 °C 30.25 in /  1024.3 hPa SSW 5.0 mph /  8 km/h -999.0 mph /  -1607.7 km/h 96 % 0.00 in /  0 mm 0 W/m2
07:51 37.7 °F /  3.2 °C 36.7 °F /  2.6 °C 30.25 in /  1024.3 hPa SSW 5.0 mph /  8 km/h -999.0 mph /  -1607.7 km/h 96 % 0.00 in /  0 mm 0 W/m2
07:56 38.5 °F /  3.6 °C 37.5 °F /  3.1 °C 30.26 in /  1024.6 hPa SSW 6.0 mph /  9.7 km/h -999.0 mph /  -1607.7 km/h 96 % 0.00 in /  0 mm 2 W/m2
08:01 38.5 °F /  3.6 °C 37.5 °F /  3.1 °C 30.26 in /  1024.6 hPa SSW 6.0 mph /  9.7 km/h -999.0 mph /  -1607.7 km/h 96 % 0.00 in /  0 mm 2 W/m2
08:06 38.5 °F /  3.6 °C 37.5 °F /  3.1 °C 30.26 in /  1024.6 hPa SSW 6.0 mph /  9.7 km/h -999.0 mph /  -1607.7 km/h 96 % 0.00 in /  0 mm 2 W/m2
08:11 38.9 °F /  3.8 °C 37.6 °F /  3.1 °C 30.26 in /  1024.6 hPa SSW 4.0 mph /  6.4 km/h -999.0 mph /  -1607.7 km/h 95 % 0.00 in /  0 mm 9 W/m2
08:16 38.9 °F /  3.8 °C 37.6 °F /  3.1 °C 30.26 in /  1024.6 hPa SSW 4.0 mph /  6.4 km/h -999.0 mph /  -1607.7 km/h 95 % 0.00 in /  0 mm 9 W/m2
08:21 38.9 °F /  3.8 °C 37.6 °F /  3.1 °C 30.26 in /  1024.6 hPa SSW 4.0 mph /  6.4 km/h -999.0 mph /  -1607.7 km/h 95 % 0.00 in /  0 mm 9 W/m2
08:26 39.0 °F /  3.9 °C 37.4 °F /  3 °C 30.26 in /  1024.6 hPa West 1.0 mph /  1.6 km/h -999.0 mph /  -1607.7 km/h 94 % 0.00 in /  0 mm 15 W/m2
08:31 39.0 °F /  3.9 °C 37.4 °F /  3 °C 30.26 in /  1024.6 hPa West 1.0 mph /  1.6 km/h -999.0 mph /  -1607.7 km/h 94 % 0.00 in /  0 mm 15 W/m2
08:36 39.0 °F /  3.9 °C 37.4 °F /  3 °C 30.26 in /  1024.6 hPa West 1.0 mph /  1.6 km/h -999.0 mph /  -1607.7 km/h 94 % 0.00 in /  0 mm 15 W/m2
08:41 38.7 °F /  3.7 °C 37.1 °F /  2.8 °C 30.27 in /  1024.9 hPa SE 2.0 mph /  3.2 km/h -999.0 mph /  -1607.7 km/h 94 % 0.00 in /  0 mm 22 W/m2
08:46 38.7 °F /  3.7 °C 37.1 °F /  2.8 °C 30.27 in /  1024.9 hPa SE 2.0 mph /  3.2 km/h -999.0 mph /  -1607.7 km/h 94 % 0.00 in /  0 mm 22 W/m2
08:51 38.7 °F /  3.7 °C 37.1 °F /  2.8 °C 30.27 in /  1024.9 hPa SE 2.0 mph /  3.2 km/h -999.0 mph /  -1607.7 km/h 94 % 0.00 in /  0 mm 22 W/m2
08:56 38.7 °F /  3.7 °C 37.1 °F /  2.8 °C 30.27 in /  1024.9 hPa ESE 2.0 mph /  3.2 km/h -999.0 mph /  -1607.7 km/h 94 % 0.00 in /  0 mm 27 W/m2
09:01 38.7 °F /  3.7 °C 37.1 °F /  2.8 °C 30.27 in /  1024.9 hPa ESE 2.0 mph /  3.2 km/h -999.0 mph /  -1607.7 km/h 94 % 0.00 in /  0 mm 27 W/m2
09:06 38.7 °F /  3.7 °C 37.1 °F /  2.8 °C 30.27 in /  1024.9 hPa ESE 2.0 mph /  3.2 km/h -999.0 mph /  -1607.7 km/h 94 % 0.00 in /  0 mm 27 W/m2
09:11 38.7 °F /  3.7 °C 37.1 °F /  2.8 °C 30.27 in /  1024.9 hPa SE 3.0 mph /  4.8 km/h -999.0 mph /  -1607.7 km/h 94 % 0.00 in /  0 mm 31 W/m2
09:16 38.7 °F /  3.7 °C 37.1 °F /  2.8 °C 30.27 in /  1024.9 hPa SE 3.0 mph /  4.8 km/h -999.0 mph /  -1607.7 km/h 94 % 0.00 in /  0 mm 31 W/m2
09:21 38.7 °F /  3.7 °C 37.1 °F /  2.8 °C 30.27 in /  1024.9 hPa SE 3.0 mph /  4.8 km/h -999.0 mph /  -1607.7 km/h 94 % 0.00 in /  0 mm 31 W/m2
09:26 38.9 °F /  3.8 °C 37.0 °F /  2.8 °C 30.27 in /  1024.9 hPa SE 1.0 mph /  1.6 km/h -999.0 mph /  -1607.7 km/h 93 % 0.00 in /  0 mm 38 W/m2
09:31 38.9 °F /  3.8 °C 37.0 °F /  2.8 °C 30.27 in /  1024.9 hPa SE 1.0 mph /  1.6 km/h -999.0 mph /  -1607.7 km/h 93 % 0.00 in /  0 mm 38 W/m2
09:36 38.9 °F /  3.8 °C 37.0 °F /  2.8 °C 30.27 in /  1024.9 hPa SE 1.0 mph /  1.6 km/h -999.0 mph /  -1607.7 km/h 93 % 0.00 in /  0 mm 38 W/m2
09:41 39.4 °F /  4.1 °C 37.5 °F /  3.1 °C 30.28 in /  1025.3 hPa SE 2.0 mph /  3.2 km/h -999.0 mph /  -1607.7 km/h 93 % 0.00 in /  0 mm 170 W/m2
09:46 39.4 °F /  4.1 °C 37.5 °F /  3.1 °C 30.28 in /  1025.3 hPa SE 2.0 mph /  3.2 km/h -999.0 mph /  -1607.7 km/h 93 % 0.00 in /  0 mm 170 W/m2
09:51 39.4 °F /  4.1 °C 37.5 °F /  3.1 °C 30.28 in /  1025.3 hPa SE 2.0 mph /  3.2 km/h -999.0 mph /  -1607.7 km/h 93 % 0.00 in /  0 mm 170 W/m2
09:56 40.6 °F /  4.8 °C 38.2 °F /  3.4 °C 30.27 in /  1024.9 hPa SE 2.0 mph /  3.2 km/h -999.0 mph /  -1607.7 km/h 91 % 0.00 in /  0 mm 192 W/m2
10:01 40.6 °F /  4.8 °C 38.2 °F /  3.4 °C 30.27 in /  1024.9 hPa SE 2.0 mph /  3.2 km/h -999.0 mph /  -1607.7 km/h 91 % 0.00 in /  0 mm 192 W/m2
10:06 40.6 °F /  4.8 °C 38.2 °F /  3.4 °C 30.27 in /  1024.9 hPa SE 2.0 mph /  3.2 km/h -999.0 mph /  -1607.7 km/h 91 % 0.00 in /  0 mm 192 W/m2
10:11 41.5 °F /  5.3 °C 38.8 °F /  3.8 °C 30.27 in /  1024.9 hPa ESE 2.0 mph /  3.2 km/h -999.0 mph /  -1607.7 km/h 90 % 0.00 in /  0 mm 216 W/m2
10:16 41.5 °F /  5.3 °C 38.8 °F /  3.8 °C 30.27 in /  1024.9 hPa ESE 2.0 mph /  3.2 km/h -999.0 mph /  -1607.7 km/h 90 % 0.00 in /  0 mm 216 W/m2
10:21 41.5 °F /  5.3 °C 38.8 °F /  3.8 °C 30.27 in /  1024.9 hPa ESE 2.0 mph /  3.2 km/h -999.0 mph /  -1607.7 km/h 90 % 0.00 in /  0 mm 216 W/m2
10:26 42.4 °F /  5.8 °C 39.4 °F /  4.1 °C 30.27 in /  1024.9 hPa SE 1.0 mph /  1.6 km/h -999.0 mph /  -1607.7 km/h 89 % 0.00 in /  0 mm 241 W/m2
10:31 42.4 °F /  5.8 °C 39.4 °F /  4.1 °C 30.27 in /  1024.9 hPa SE 1.0 mph /  1.6 km/h -999.0 mph /  -1607.7 km/h 89 % 0.00 in /  0 mm 241 W/m2
10:36 42.4 °F /  5.8 °C 39.4 °F /  4.1 °C 30.27 in /  1024.9 hPa SE 1.0 mph /  1.6 km/h -999.0 mph /  -1607.7 km/h 89 % 0.00 in /  0 mm 241 W/m2
10:41 43.4 °F /  6.3 °C 38.9 °F /  3.8 °C 30.28 in /  1025.3 hPa SSW 4.0 mph /  6.4 km/h -999.0 mph /  -1607.7 km/h 84 % 0.00 in /  0 mm 261 W/m2
10:46 43.4 °F /  6.3 °C 38.9 °F /  3.8 °C 30.28 in /  1025.3 hPa SSW 4.0 mph /  6.4 km/h -999.0 mph /  -1607.7 km/h 84 % 0.00 in /  0 mm 261 W/m2
10:51 43.4 °F /  6.3 °C 38.9 °F /  3.8 °C 30.28 in /  1025.3 hPa SSW 4.0 mph /  6.4 km/h -999.0 mph /  -1607.7 km/h 84 % 0.00 in /  0 mm 261 W/m2
10:56 44.1 °F /  6.7 °C 38.6 °F /  3.7 °C 30.27 in /  1024.9 hPa SSW 7.0 mph /  11.3 km/h -999.0 mph /  -1607.7 km/h 81 % 0.00 in /  0 mm 277 W/m2
11:01 44.1 °F /  6.7 °C 38.6 °F /  3.7 °C 30.27 in /  1024.9 hPa SSW 7.0 mph /  11.3 km/h -999.0 mph /  -1607.7 km/h 81 % 0.00 in /  0 mm 277 W/m2
11:06 44.1 °F /  6.7 °C 38.6 °F /  3.7 °C 30.27 in /  1024.9 hPa SSW 7.0 mph /  11.3 km/h -999.0 mph /  -1607.7 km/h 81 % 0.00 in /  0 mm 277 W/m2
11:11 44.6 °F /  7 °C 38.8 °F /  3.8 °C 30.27 in /  1024.9 hPa SSW 8.0 mph /  12.9 km/h -999.0 mph /  -1607.7 km/h 80 % 0.00 in /  0 mm 295 W/m2
11:16 44.6 °F /  7 °C 38.8 °F /  3.8 °C 30.27 in /  1024.9 hPa SSW 8.0 mph /  12.9 km/h -999.0 mph /  -1607.7 km/h 80 % 0.00 in /  0 mm 295 W/m2
11:21 44.6 °F /  7 °C 38.8 °F /  3.8 °C 30.27 in /  1024.9 hPa SSW 8.0 mph /  12.9 km/h -999.0 mph /  -1607.7 km/h 80 % 0.00 in /  0 mm 295 W/m2
11:26 45.0 °F /  7.2 °C 38.9 °F /  3.8 °C 30.27 in /  1024.9 hPa SSW 9.0 mph /  14.5 km/h -999.0 mph /  -1607.7 km/h 79 % 0.00 in /  0 mm 305 W/m2
11:31 45.0 °F /  7.2 °C 38.9 °F /  3.8 °C 30.27 in /  1024.9 hPa SSW 9.0 mph /  14.5 km/h -999.0 mph /  -1607.7 km/h 79 % 0.00 in /  0 mm 305 W/m2
11:36 45.0 °F /  7.2 °C 38.9 °F /  3.8 °C 30.27 in /  1024.9 hPa SSW 9.0 mph /  14.5 km/h -999.0 mph /  -1607.7 km/h 79 % 0.00 in /  0 mm 305 W/m2
11:41 45.3 °F /  7.4 °C 38.8 °F /  3.8 °C 30.27 in /  1024.9 hPa SSW 11.0 mph /  17.7 km/h -999.0 mph /  -1607.7 km/h 78 % 0.00 in /  0 mm 312 W/m2
11:46 45.3 °F /  7.4 °C 38.8 °F /  3.8 °C 30.27 in /  1024.9 hPa SSW 11.0 mph /  17.7 km/h -999.0 mph /  -1607.7 km/h 78 % 0.00 in /  0 mm 312 W/m2
11:51 45.3 °F /  7.4 °C 38.8 °F /  3.8 °C 30.27 in /  1024.9 hPa SSW 11.0 mph /  17.7 km/h -999.0 mph /  -1607.7 km/h 78 % 0.00 in /  0 mm 312 W/m2
11:56 45.3 °F /  7.4 °C 38.5 °F /  3.6 °C 30.26 in /  1024.6 hPa SW 10.0 mph /  16.1 km/h -999.0 mph /  -1607.7 km/h 77 % 0.00 in /  0 mm 315 W/m2
12:01 45.3 °F /  7.4 °C 38.5 °F /  3.6 °C 30.26 in /  1024.6 hPa SW 10.0 mph /  16.1 km/h -999.0 mph /  -1607.7 km/h 77 % 0.00 in /  0 mm 315 W/m2
12:06 45.3 °F /  7.4 °C 38.5 °F /  3.6 °C 30.26 in /  1024.6 hPa SW 10.0 mph /  16.1 km/h -999.0 mph /  -1607.7 km/h 77 % 0.00 in /  0 mm 315 W/m2
12:11 45.6 °F /  7.6 °C 38.1 °F /  3.4 °C 30.25 in /  1024.3 hPa SW 11.0 mph /  17.7 km/h -999.0 mph /  -1607.7 km/h 75 % 0.00 in /  0 mm 319 W/m2
12:16 45.6 °F /  7.6 °C 38.1 °F /  3.4 °C 30.25 in /  1024.3 hPa SW 11.0 mph /  17.7 km/h -999.0 mph /  -1607.7 km/h 75 % 0.00 in /  0 mm 319 W/m2
12:21 45.6 °F /  7.6 °C 38.1 °F /  3.4 °C 30.25 in /  1024.3 hPa SW 11.0 mph /  17.7 km/h -999.0 mph /  -1607.7 km/h 75 % 0.00 in /  0 mm 319 W/m2
12:26 46.1 °F /  7.8 °C 38.3 °F /  3.5 °C 30.25 in /  1024.3 hPa SSW 10.0 mph /  16.1 km/h -999.0 mph /  -1607.7 km/h 74 % 0.00 in /  0 mm 320 W/m2
12:31 46.1 °F /  7.8 °C 38.3 °F /  3.5 °C 30.25 in /  1024.3 hPa SSW 10.0 mph /  16.1 km/h -999.0 mph /  -1607.7 km/h 74 % 0.00 in /  0 mm 320 W/m2
12:36 46.1 °F /  7.8 °C 38.3 °F /  3.5 °C 30.25 in /  1024.3 hPa SSW 10.0 mph /  16.1 km/h -999.0 mph /  -1607.7 km/h 74 % 0.00 in /  0 mm 320 W/m2
12:41 46.1 °F /  7.8 °C 38.3 °F /  3.5 °C 30.25 in /  1024.3 hPa SSW 11.0 mph /  17.7 km/h -999.0 mph /  -1607.7 km/h 74 % 0.00 in /  0 mm 317 W/m2
12:46 46.1 °F /  7.8 °C 38.3 °F /  3.5 °C 30.25 in /  1024.3 hPa SSW 11.0 mph /  17.7 km/h -999.0 mph /  -1607.7 km/h 74 % 0.00 in /  0 mm 317 W/m2
12:51 46.1 °F /  7.8 °C 38.3 °F /  3.5 °C 30.25 in /  1024.3 hPa SSW 11.0 mph /  17.7 km/h -999.0 mph /  -1607.7 km/h 74 % 0.00 in /  0 mm 317 W/m2
12:56 46.0 °F /  7.8 °C 38.2 °F /  3.4 °C 30.25 in /  1024.3 hPa SSW 12.0 mph /  19.3 km/h -999.0 mph /  -1607.7 km/h 74 % 0.00 in /  0 mm 311 W/m2
13:01 46.0 °F /  7.8 °C 38.2 °F /  3.4 °C 30.25 in /  1024.3 hPa SSW 12.0 mph /  19.3 km/h -999.0 mph /  -1607.7 km/h 74 % 0.00 in /  0 mm 311 W/m2
13:06 46.0 °F /  7.8 °C 38.2 °F /  3.4 °C 30.25 in /  1024.3 hPa SSW 12.0 mph /  19.3 km/h -999.0 mph /  -1607.7 km/h 74 % 0.00 in /  0 mm 311 W/m2
13:11 46.3 °F /  7.9 °C 37.8 °F /  3.2 °C 30.24 in /  1023.9 hPa SW 11.0 mph /  17.7 km/h -999.0 mph /  -1607.7 km/h 72 % 0.00 in /  0 mm 304 W/m2
13:16 46.3 °F /  7.9 °C 37.8 °F /  3.2 °C 30.24 in /  1023.9 hPa SW 11.0 mph /  17.7 km/h -999.0 mph /  -1607.7 km/h 72 % 0.00 in /  0 mm 304 W/m2
13:21 46.3 °F /  7.9 °C 37.8 °F /  3.2 °C 30.24 in /  1023.9 hPa SW 11.0 mph /  17.7 km/h -999.0 mph /  -1607.7 km/h 72 % 0.00 in /  0 mm 304 W/m2
13:26 46.2 °F /  7.9 °C 37.7 °F /  3.2 °C 30.24 in /  1023.9 hPa SSW 11.0 mph /  17.7 km/h -999.0 mph /  -1607.7 km/h 72 % 0.00 in /  0 mm 293 W/m2
13:31 46.2 °F /  7.9 °C 37.7 °F /  3.2 °C 30.24 in /  1023.9 hPa SSW 11.0 mph /  17.7 km/h -999.0 mph /  -1607.7 km/h 72 % 0.00 in /  0 mm 293 W/m2
13:36 46.2 °F /  7.9 °C 37.7 °F /  3.2 °C 30.24 in /  1023.9 hPa SSW 11.0 mph /  17.7 km/h -999.0 mph /  -1607.7 km/h 72 % 0.00 in /  0 mm 293 W/m2
13:41 46.0 °F /  7.8 °C 37.8 °F /  3.2 °C 30.24 in /  1023.9 hPa SW 11.0 mph /  17.7 km/h -999.0 mph /  -1607.7 km/h 73 % 0.00 in /  0 mm 277 W/m2
13:46 46.0 °F /  7.8 °C 37.8 °F /  3.2 °C 30.24 in /  1023.9 hPa SW 11.0 mph /  17.7 km/h -999.0 mph /  -1607.7 km/h 73 % 0.00 in /  0 mm 277 W/m2
13:51 46.0 °F /  7.8 °C 37.8 °F /  3.2 °C 30.24 in /  1023.9 hPa SW 11.0 mph /  17.7 km/h -999.0 mph /  -1607.7 km/h 73 % 0.00 in /  0 mm 277 W/m2
13:56 46.1 °F /  7.8 °C 37.9 °F /  3.3 °C 30.23 in /  1023.6 hPa SSW 11.0 mph /  17.7 km/h -999.0 mph /  -1607.7 km/h 73 % 0.00 in /  0 mm 261 W/m2
14:01 46.1 °F /  7.8 °C 37.9 °F /  3.3 °C 30.23 in /  1023.6 hPa SSW 11.0 mph /  17.7 km/h -999.0 mph /  -1607.7 km/h 73 % 0.00 in /  0 mm 261 W/m2
14:06 46.1 °F /  7.8 °C 37.9 °F /  3.3 °C 30.23 in /  1023.6 hPa SSW 11.0 mph /  17.7 km/h -999.0 mph /  -1607.7 km/h 73 % 0.00 in /  0 mm 261 W/m2
14:11 46.2 °F /  7.9 °C 38.0 °F /  3.3 °C 30.23 in /  1023.6 hPa SW 10.0 mph /  16.1 km/h -999.0 mph /  -1607.7 km/h 73 % 0.00 in /  0 mm 243 W/m2
14:16 46.2 °F /  7.9 °C 38.0 °F /  3.3 °C 30.23 in /  1023.6 hPa SW 10.0 mph /  16.1 km/h -999.0 mph /  -1607.7 km/h 73 % 0.00 in /  0 mm 243 W/m2
14:21 46.2 °F /  7.9 °C 38.0 °F /  3.3 °C 30.23 in /  1023.6 hPa SW 10.0 mph /  16.1 km/h -999.0 mph /  -1607.7 km/h 73 % 0.00 in /  0 mm 243 W/m2
14:26 46.3 °F /  7.9 °C 37.4 °F /  3 °C 30.23 in /  1023.6 hPa SSW 11.0 mph /  17.7 km/h -999.0 mph /  -1607.7 km/h 71 % 0.00 in /  0 mm 222 W/m2
14:31 46.3 °F /  7.9 °C 37.4 °F /  3 °C 30.23 in /  1023.6 hPa SSW 11.0 mph /  17.7 km/h -999.0 mph /  -1607.7 km/h 71 % 0.00 in /  0 mm 222 W/m2
14:36 46.3 °F /  7.9 °C 37.4 °F /  3 °C 30.23 in /  1023.6 hPa SSW 11.0 mph /  17.7 km/h -999.0 mph /  -1607.7 km/h 71 % 0.00 in /  0 mm 222 W/m2
14:41 46.3 °F /  7.9 °C 37.8 °F /  3.2 °C 30.23 in /  1023.6 hPa SW 10.0 mph /  16.1 km/h -999.0 mph /  -1607.7 km/h 72 % 0.00 in /  0 mm 197 W/m2
14:46 46.3 °F /  7.9 °C 37.8 °F /  3.2 °C 30.23 in /  1023.6 hPa SW 10.0 mph /  16.1 km/h -999.0 mph /  -1607.7 km/h 72 % 0.00 in /  0 mm 197 W/m2
14:51 46.3 °F /  7.9 °C 37.8 °F /  3.2 °C 30.23 in /  1023.6 hPa SW 10.0 mph /  16.1 km/h -999.0 mph /  -1607.7 km/h 72 % 0.00 in /  0 mm 197 W/m2
14:56 46.2 °F /  7.9 °C 37.3 °F /  2.9 °C 30.23 in /  1023.6 hPa SW 9.0 mph /  14.5 km/h -999.0 mph /  -1607.7 km/h 71 % 0.00 in /  0 mm 172 W/m2
15:01 46.2 °F /  7.9 °C 37.3 °F /  2.9 °C 30.23 in /  1023.6 hPa SW 9.0 mph /  14.5 km/h -999.0 mph /  -1607.7 km/h 71 % 0.00 in /  0 mm 172 W/m2
15:06 46.2 °F /  7.9 °C 37.3 °F /  2.9 °C 30.23 in /  1023.6 hPa SW 9.0 mph /  14.5 km/h -999.0 mph /  -1607.7 km/h 71 % 0.00 in /  0 mm 172 W/m2
15:11 45.8 °F /  7.7 °C 37.6 °F /  3.1 °C 30.23 in /  1023.6 hPa SW 10.0 mph /  16.1 km/h -999.0 mph /  -1607.7 km/h 73 % 0.00 in /  0 mm 144 W/m2
15:16 45.8 °F /  7.7 °C 37.6 °F /  3.1 °C 30.23 in /  1023.6 hPa SW 10.0 mph /  16.1 km/h -999.0 mph /  -1607.7 km/h 73 % 0.00 in /  0 mm 144 W/m2
15:21 45.8 °F /  7.7 °C 37.6 °F /  3.1 °C 30.23 in /  1023.6 hPa SW 10.0 mph /  16.1 km/h -999.0 mph /  -1607.7 km/h 73 % 0.00 in /  0 mm 144 W/m2
15:26 45.1 °F /  7.3 °C 37.6 °F /  3.1 °C 30.23 in /  1023.6 hPa SW 5.0 mph /  8 km/h -999.0 mph /  -1607.7 km/h 75 % 0.00 in /  0 mm 92 W/m2
15:31 45.1 °F /  7.3 °C 37.6 °F /  3.1 °C 30.23 in /  1023.6 hPa SW 5.0 mph /  8 km/h -999.0 mph /  -1607.7 km/h 75 % 0.00 in /  0 mm 92 W/m2
15:36 45.1 °F /  7.3 °C 37.6 °F /  3.1 °C 30.23 in /  1023.6 hPa SW 5.0 mph /  8 km/h -999.0 mph /  -1607.7 km/h 75 % 0.00 in /  0 mm 92 W/m2
15:41 44.6 °F /  7 °C 37.8 °F /  3.2 °C 30.22 in /  1023.2 hPa SSW 7.0 mph /  11.3 km/h -999.0 mph /  -1607.7 km/h 77 % 0.00 in /  0 mm 26 W/m2
15:46 44.6 °F /  7 °C 37.8 °F /  3.2 °C 30.22 in /  1023.2 hPa SSW 7.0 mph /  11.3 km/h -999.0 mph /  -1607.7 km/h 77 % 0.00 in /  0 mm 26 W/m2
15:51 44.6 °F /  7 °C 37.8 °F /  3.2 °C 30.22 in /  1023.2 hPa SSW 7.0 mph /  11.3 km/h -999.0 mph /  -1607.7 km/h 77 % 0.00 in /  0 mm 26 W/m2
15:56 44.1 °F /  6.7 °C 37.7 °F /  3.2 °C 30.22 in /  1023.2 hPa SW 4.0 mph /  6.4 km/h -999.0 mph /  -1607.7 km/h 78 % 0.00 in /  0 mm 21 W/m2
16:01 44.1 °F /  6.7 °C 37.7 °F /  3.2 °C 30.22 in /  1023.2 hPa SW 4.0 mph /  6.4 km/h -999.0 mph /  -1607.7 km/h 78 % 0.00 in /  0 mm 21 W/m2
16:06 44.1 °F /  6.7 °C 37.7 °F /  3.2 °C 30.22 in /  1023.2 hPa SW 4.0 mph /  6.4 km/h -999.0 mph /  -1607.7 km/h 78 % 0.00 in /  0 mm 21 W/m2
16:11 43.7 °F /  6.5 °C 37.6 °F /  3.1 °C 30.22 in /  1023.2 hPa SW 3.0 mph /  4.8 km/h -999.0 mph /  -1607.7 km/h 79 % 0.00 in /  0 mm 17 W/m2
16:16 43.7 °F /  6.5 °C 37.6 °F /  3.1 °C 30.22 in /  1023.2 hPa SW 3.0 mph /  4.8 km/h -999.0 mph /  -1607.7 km/h 79 % 0.00 in /  0 mm 17 W/m2
16:21 43.7 °F /  6.5 °C 37.6 °F /  3.1 °C 30.22 in /  1023.2 hPa SW 3.0 mph /  4.8 km/h -999.0 mph /  -1607.7 km/h 79 % 0.00 in /  0 mm 17 W/m2
16:26 43.2 °F /  6.2 °C 37.8 °F /  3.2 °C 30.22 in /  1023.2 hPa South 3.0 mph /  4.8 km/h -999.0 mph /  -1607.7 km/h 81 % 0.00 in /  0 mm 10 W/m2
16:31 43.2 °F /  6.2 °C 37.8 °F /  3.2 °C 30.22 in /  1023.2 hPa South 3.0 mph /  4.8 km/h -999.0 mph /  -1607.7 km/h 81 % 0.00 in /  0 mm 10 W/m2
16:36 43.2 °F /  6.2 °C 37.8 °F /  3.2 °C 30.22 in /  1023.2 hPa South 3.0 mph /  4.8 km/h -999.0 mph /  -1607.7 km/h 81 % 0.00 in /  0 mm 10 W/m2
16:41 42.6 °F /  5.9 °C 37.5 °F /  3.1 °C 30.22 in /  1023.2 hPa SSW 3.0 mph /  4.8 km/h -999.0 mph /  -1607.7 km/h 82 % 0.00 in /  0 mm 3 W/m2
16:46 42.6 °F /  5.9 °C 37.5 °F /  3.1 °C 30.22 in /  1023.2 hPa SSW 3.0 mph /  4.8 km/h -999.0 mph /  -1607.7 km/h 82 % 0.00 in /  0 mm 3 W/m2
16:51 42.6 °F /  5.9 °C 37.5 °F /  3.1 °C 30.22 in /  1023.2 hPa SSW 3.0 mph /  4.8 km/h -999.0 mph /  -1607.7 km/h 82 % 0.00 in /  0 mm 3 W/m2
16:56 42.0 °F /  5.6 °C 37.2 °F /  2.9 °C 30.22 in /  1023.2 hPa SSE 1.0 mph /  1.6 km/h -999.0 mph /  -1607.7 km/h 83 % 0.00 in /  0 mm 0 W/m2
17:01 42.0 °F /  5.6 °C 37.2 °F /  2.9 °C 30.22 in /  1023.2 hPa SSE 1.0 mph /  1.6 km/h -999.0 mph /  -1607.7 km/h 83 % 0.00 in /  0 mm 0 W/m2
17:06 42.0 °F /  5.6 °C 37.2 °F /  2.9 °C 30.22 in /  1023.2 hPa SSE 1.0 mph /  1.6 km/h -999.0 mph /  -1607.7 km/h 83 % 0.00 in /  0 mm 0 W/m2
17:11 41.4 °F /  5.2 °C 37.2 °F /  2.9 °C 30.22 in /  1023.2 hPa SSE 1.0 mph /  1.6 km/h -999.0 mph /  -1607.7 km/h 85 % 0.00 in /  0 mm 0 W/m2
17:16 41.4 °F /  5.2 °C 37.2 °F /  2.9 °C 30.22 in /  1023.2 hPa SSE 1.0 mph /  1.6 km/h -999.0 mph /  -1607.7 km/h 85 % 0.00 in /  0 mm 0 W/m2
17:21 41.4 °F /  5.2 °C 37.2 °F /  2.9 °C 30.22 in /  1023.2 hPa SSE 1.0 mph /  1.6 km/h -999.0 mph /  -1607.7 km/h 85 % 0.00 in /  0 mm 0 W/m2
17:26 40.9 °F /  4.9 °C 36.7 °F /  2.6 °C 30.22 in /  1023.2 hPa SSW 1.0 mph /  1.6 km/h -999.0 mph /  -1607.7 km/h 85 % 0.00 in /  0 mm 0 W/m2
17:31 40.9 °F /  4.9 °C 36.7 °F /  2.6 °C 30.22 in /  1023.2 hPa SSW 1.0 mph /  1.6 km/h -999.0 mph /  -1607.7 km/h 85 % 0.00 in /  0 mm 0 W/m2
17:36 40.9 °F /  4.9 °C 36.7 °F /  2.6 °C 30.22 in /  1023.2 hPa SSW 1.0 mph /  1.6 km/h -999.0 mph /  -1607.7 km/h 85 % 0.00 in /  0 mm 0 W/m2
17:41 40.1 °F /  4.5 °C 36.5 °F /  2.5 °C 30.22 in /  1023.2 hPa SSW 2.0 mph /  3.2 km/h -999.0 mph /  -1607.7 km/h 87 % 0.00 in /  0 mm 0 W/m2
17:46 40.1 °F /  4.5 °C 36.5 °F /  2.5 °C 30.22 in /  1023.2 hPa SSW 2.0 mph /  3.2 km/h -999.0 mph /  -1607.7 km/h 87 % 0.00 in /  0 mm 0 W/m2
17:51 40.1 °F /  4.5 °C 36.5 °F /  2.5 °C 30.22 in /  1023.2 hPa SSW 2.0 mph /  3.2 km/h -999.0 mph /  -1607.7 km/h 87 % 0.00 in /  0 mm 0 W/m2
17:56 39.3 °F /  4.1 °C 36.3 °F /  2.4 °C 30.23 in /  1023.6 hPa SE 4.0 mph /  6.4 km/h -999.0 mph /  -1607.7 km/h 89 % 0.00 in /  0 mm 0 W/m2
18:01 39.3 °F /  4.1 °C 36.3 °F /  2.4 °C 30.23 in /  1023.6 hPa SE 4.0 mph /  6.4 km/h -999.0 mph /  -1607.7 km/h 89 % 0.00 in /  0 mm 0 W/m2
18:06 39.3 °F /  4.1 °C 36.3 °F /  2.4 °C 30.23 in /  1023.6 hPa SE 4.0 mph /  6.4 km/h -999.0 mph /  -1607.7 km/h 89 % 0.00 in /  0 mm 0 W/m2
18:11 38.7 °F /  3.7 °C 36.0 °F /  2.2 °C 30.23 in /  1023.6 hPa SE 4.0 mph /  6.4 km/h -999.0 mph /  -1607.7 km/h 90 % 0.00 in /  0 mm 0 W/m2
18:16 38.7 °F /  3.7 °C 36.0 °F /  2.2 °C 30.23 in /  1023.6 hPa SE 4.0 mph /  6.4 km/h -999.0 mph /  -1607.7 km/h 90 % 0.00 in /  0 mm 0 W/m2
18:21 38.7 °F /  3.7 °C 36.0 °F /  2.2 °C 30.23 in /  1023.6 hPa SE 4.0 mph /  6.4 km/h -999.0 mph /  -1607.7 km/h 90 % 0.00 in /  0 mm 0 W/m2
18:26 38.1 °F /  3.4 °C 35.7 °F /  2.1 °C 30.23 in /  1023.6 hPa SSE 4.0 mph /  6.4 km/h -999.0 mph /  -1607.7 km/h 91 % 0.00 in /  0 mm 0 W/m2
18:31 38.1 °F /  3.4 °C 35.7 °F /  2.1 °C 30.23 in /  1023.6 hPa SSE 4.0 mph /  6.4 km/h -999.0 mph /  -1607.7 km/h 91 % 0.00 in /  0 mm 0 W/m2
18:36 38.1 °F /  3.4 °C 35.7 °F /  2.1 °C 30.23 in /  1023.6 hPa SSE 4.0 mph /  6.4 km/h -999.0 mph /  -1607.7 km/h 91 % 0.00 in /  0 mm 0 W/m2
18:41 37.6 °F /  3.1 °C 35.5 °F /  1.9 °C 30.23 in /  1023.6 hPa SSE 7.0 mph /  11.3 km/h -999.0 mph /  -1607.7 km/h 92 % 0.00 in /  0 mm 0 W/m2
18:46 37.6 °F /  3.1 °C 35.5 °F /  1.9 °C 30.23 in /  1023.6 hPa SSE 7.0 mph /  11.3 km/h -999.0 mph /  -1607.7 km/h 92 % 0.00 in /  0 mm 0 W/m2
18:51 37.6 °F /  3.1 °C 35.5 °F /  1.9 °C 30.23 in /  1023.6 hPa SSE 7.0 mph /  11.3 km/h -999.0 mph /  -1607.7 km/h 92 % 0.00 in /  0 mm 0 W/m2
18:56 37.6 °F /  3.1 °C 35.5 °F /  1.9 °C 30.23 in /  1023.6 hPa SSE 7.0 mph /  11.3 km/h -999.0 mph /  -1607.7 km/h 92 % 0.00 in /  0 mm 0 W/m2
19:01 37.6 °F /  3.1 °C 35.5 °F /  1.9 °C 30.23 in /  1023.6 hPa SSE 7.0 mph /  11.3 km/h -999.0 mph /  -1607.7 km/h 92 % 0.00 in /  0 mm 0 W/m2
19:06 37.6 °F /  3.1 °C 35.5 °F /  1.9 °C 30.23 in /  1023.6 hPa SSE 7.0 mph /  11.3 km/h -999.0 mph /  -1607.7 km/h 92 % 0.00 in /  0 mm 0 W/m2
19:11 37.9 °F /  3.3 °C 35.5 °F /  1.9 °C 30.23 in /  1023.6 hPa South 8.0 mph /  12.9 km/h -999.0 mph /  -1607.7 km/h 91 % 0.00 in /  0 mm 0 W/m2
19:16 37.9 °F /  3.3 °C 35.5 °F /  1.9 °C 30.23 in /  1023.6 hPa South 8.0 mph /  12.9 km/h -999.0 mph /  -1607.7 km/h 91 % 0.00 in /  0 mm 0 W/m2
19:21 37.9 °F /  3.3 °C 35.5 °F /  1.9 °C 30.23 in /  1023.6 hPa South 8.0 mph /  12.9 km/h -999.0 mph /  -1607.7 km/h 91 % 0.00 in /  0 mm 0 W/m2
19:26 38.0 °F /  3.3 °C 35.3 °F /  1.8 °C 30.23 in /  1023.6 hPa SSW 7.0 mph /  11.3 km/h -999.0 mph /  -1607.7 km/h 90 % 0.00 in /  0 mm 0 W/m2
19:31 38.0 °F /  3.3 °C 35.3 °F /  1.8 °C 30.23 in /  1023.6 hPa SSW 7.0 mph /  11.3 km/h -999.0 mph /  -1607.7 km/h 90 % 0.00 in /  0 mm 0 W/m2
19:36 38.0 °F /  3.3 °C 35.3 °F /  1.8 °C 30.23 in /  1023.6 hPa SSW 7.0 mph /  11.3 km/h -999.0 mph /  -1607.7 km/h 90 % 0.00 in /  0 mm 0 W/m2
19:41 38.0 °F /  3.3 °C 35.3 °F /  1.8 °C 30.23 in /  1023.6 hPa SSW 7.0 mph /  11.3 km/h -999.0 mph /  -1607.7 km/h 90 % 0.00 in /  0 mm 0 W/m2
19:46 38.0 °F /  3.3 °C 35.3 °F /  1.8 °C 30.23 in /  1023.6 hPa SSW 7.0 mph /  11.3 km/h -999.0 mph /  -1607.7 km/h 90 % 0.00 in /  0 mm 0 W/m2
19:51 38.0 °F /  3.3 °C 35.3 °F /  1.8 °C 30.23 in /  1023.6 hPa SSW 7.0 mph /  11.3 km/h -999.0 mph /  -1607.7 km/h 90 % 0.00 in /  0 mm 0 W/m2
19:56 37.9 °F /  3.3 °C 34.9 °F /  1.6 °C 30.23 in /  1023.6 hPa SSW 6.0 mph /  9.7 km/h -999.0 mph /  -1607.7 km/h 89 % 0.00 in /  0 mm 0 W/m2
20:01 37.9 °F /  3.3 °C 34.9 °F /  1.6 °C 30.23 in /  1023.6 hPa SSW 6.0 mph /  9.7 km/h -999.0 mph /  -1607.7 km/h 89 % 0.00 in /  0 mm 0 W/m2
20:06 37.9 °F /  3.3 °C 34.9 °F /  1.6 °C 30.23 in /  1023.6 hPa SSW 6.0 mph /  9.7 km/h -999.0 mph /  -1607.7 km/h 89 % 0.00 in /  0 mm 0 W/m2
20:11 37.9 °F /  3.3 °C 34.9 °F /  1.6 °C 30.24 in /  1023.9 hPa SSW 2.0 mph /  3.2 km/h -999.0 mph /  -1607.7 km/h 89 % 0.00 in /  0 mm 0 W/m2
20:16 37.9 °F /  3.3 °C 34.9 °F /  1.6 °C 30.24 in /  1023.9 hPa SSW 2.0 mph /  3.2 km/h -999.0 mph /  -1607.7 km/h 89 % 0.00 in /  0 mm 0 W/m2
20:21 37.9 °F /  3.3 °C 34.9 °F /  1.6 °C 30.24 in /  1023.9 hPa SSW 2.0 mph /  3.2 km/h -999.0 mph /  -1607.7 km/h 89 % 0.00 in /  0 mm 0 W/m2
20:26 37.9 °F /  3.3 °C 34.9 °F /  1.6 °C 30.24 in /  1023.9 hPa South 6.0 mph /  9.7 km/h -999.0 mph /  -1607.7 km/h 89 % 0.00 in /  0 mm 0 W/m2
20:31 37.9 °F /  3.3 °C 34.9 °F /  1.6 °C 30.24 in /  1023.9 hPa South 6.0 mph /  9.7 km/h -999.0 mph /  -1607.7 km/h 89 % 0.00 in /  0 mm 0 W/m2
20:36 37.9 °F /  3.3 °C 34.9 °F /  1.6 °C 30.24 in /  1023.9 hPa South 6.0 mph /  9.7 km/h -999.0 mph /  -1607.7 km/h 89 % 0.00 in /  0 mm 0 W/m2
20:41 37.9 °F /  3.3 °C 34.7 °F /  1.5 °C 30.24 in /  1023.9 hPa South 6.0 mph /  9.7 km/h -999.0 mph /  -1607.7 km/h 88 % 0.00 in /  0 mm 0 W/m2
20:46 37.9 °F /  3.3 °C 34.7 °F /  1.5 °C 30.24 in /  1023.9 hPa South 6.0 mph /  9.7 km/h -999.0 mph /  -1607.7 km/h 88 % 0.00 in /  0 mm 0 W/m2
20:51 37.9 °F /  3.3 °C 34.7 °F /  1.5 °C 30.24 in /  1023.9 hPa South 6.0 mph /  9.7 km/h -999.0 mph /  -1607.7 km/h 88 % 0.00 in /  0 mm 0 W/m2
20:56 37.7 °F /  3.2 °C 34.5 °F /  1.4 °C 30.24 in /  1023.9 hPa South 6.0 mph /  9.7 km/h -999.0 mph /  -1607.7 km/h 88 % 0.00 in /  0 mm 0 W/m2
21:01 37.7 °F /  3.2 °C 34.5 °F /  1.4 °C 30.24 in /  1023.9 hPa South 6.0 mph /  9.7 km/h -999.0 mph /  -1607.7 km/h 88 % 0.00 in /  0 mm 0 W/m2
21:06 37.7 °F /  3.2 °C 34.5 °F /  1.4 °C 30.24 in /  1023.9 hPa South 6.0 mph /  9.7 km/h -999.0 mph /  -1607.7 km/h 88 % 0.00 in /  0 mm 0 W/m2
21:11 37.6 °F /  3.1 °C 34.4 °F /  1.3 °C 30.24 in /  1023.9 hPa South 5.0 mph /  8 km/h -999.0 mph /  -1607.7 km/h 88 % 0.00 in /  0 mm 0 W/m2
21:16 37.6 °F /  3.1 °C 34.4 °F /  1.3 °C 30.24 in /  1023.9 hPa South 5.0 mph /  8 km/h -999.0 mph /  -1607.7 km/h 88 % 0.00 in /  0 mm 0 W/m2
21:21 37.6 °F /  3.1 °C 34.4 °F /  1.3 °C 30.24 in /  1023.9 hPa South 5.0 mph /  8 km/h -999.0 mph /  -1607.7 km/h 88 % 0.00 in /  0 mm 0 W/m2
21:26 37.6 °F /  3.1 °C 34.4 °F /  1.3 °C 30.23 in /  1023.6 hPa SSW 4.0 mph /  6.4 km/h -999.0 mph /  -1607.7 km/h 88 % 0.00 in /  0 mm 0 W/m2
21:31 37.6 °F /  3.1 °C 34.4 °F /  1.3 °C 30.23 in /  1023.6 hPa SSW 4.0 mph /  6.4 km/h -999.0 mph /  -1607.7 km/h 88 % 0.00 in /  0 mm 0 W/m2
21:36 37.6 °F /  3.1 °C 34.4 °F /  1.3 °C 30.23 in /  1023.6 hPa SSW 4.0 mph /  6.4 km/h -999.0 mph /  -1607.7 km/h 88 % 0.00 in /  0 mm 0 W/m2
21:41 37.7 °F /  3.2 °C 34.8 °F /  1.6 °C 30.23 in /  1023.6 hPa South 5.0 mph /  8 km/h -999.0 mph /  -1607.7 km/h 89 % 0.00 in /  0 mm 0 W/m2
21:46 37.7 °F /  3.2 °C 34.8 °F /  1.6 °C 30.23 in /  1023.6 hPa South 5.0 mph /  8 km/h -999.0 mph /  -1607.7 km/h 89 % 0.00 in /  0 mm 0 W/m2
21:51 37.7 °F /  3.2 °C 34.8 °F /  1.6 °C 30.23 in /  1023.6 hPa South 5.0 mph /  8 km/h -999.0 mph /  -1607.7 km/h 89 % 0.00 in /  0 mm 0 W/m2
21:56 37.7 °F /  3.2 °C 34.8 °F /  1.6 °C 30.23 in /  1023.6 hPa South 5.0 mph /  8 km/h -999.0 mph /  -1607.7 km/h 89 % 0.00 in /  0 mm 0 W/m2
22:01 37.7 °F /  3.2 °C 34.8 °F /  1.6 °C 30.23 in /  1023.6 hPa South 5.0 mph /  8 km/h -999.0 mph /  -1607.7 km/h 89 % 0.00 in /  0 mm 0 W/m2
22:06 37.7 °F /  3.2 °C 34.8 °F /  1.6 °C 30.23 in /  1023.6 hPa South 5.0 mph /  8 km/h -999.0 mph /  -1607.7 km/h 89 % 0.00 in /  0 mm 0 W/m2
22:11 37.4 °F /  3 °C 34.5 °F /  1.4 °C 30.23 in /  1023.6 hPa SSE 6.0 mph /  9.7 km/h -999.0 mph /  -1607.7 km/h 89 % 0.00 in /  0 mm 0 W/m2
22:16 37.4 °F /  3 °C 34.5 °F /  1.4 °C 30.23 in /  1023.6 hPa SSE 6.0 mph /  9.7 km/h -999.0 mph /  -1607.7 km/h 89 % 0.00 in /  0 mm 0 W/m2
22:21 37.4 °F /  3 °C 34.5 °F /  1.4 °C 30.23 in /  1023.6 hPa SSE 6.0 mph /  9.7 km/h -999.0 mph /  -1607.7 km/h 89 % 0.00 in /  0 mm 0 W/m2
22:26 37.1 °F /  2.8 °C 34.4 °F /  1.3 °C 30.23 in /  1023.6 hPa SSE 6.0 mph /  9.7 km/h -999.0 mph /  -1607.7 km/h 90 % 0.00 in /  0 mm 0 W/m2
22:31 37.1 °F /  2.8 °C 34.4 °F /  1.3 °C 30.23 in /  1023.6 hPa SSE 6.0 mph /  9.7 km/h -999.0 mph /  -1607.7 km/h 90 % 0.00 in /  0 mm 0 W/m2
22:36 37.1 °F /  2.8 °C 34.4 °F /  1.3 °C 30.23 in /  1023.6 hPa SSE 6.0 mph /  9.7 km/h -999.0 mph /  -1607.7 km/h 90 % 0.00 in /  0 mm 0 W/m2
22:41 36.8 °F /  2.7 °C 33.9 °F /  1.1 °C 30.23 in /  1023.6 hPa South 7.0 mph /  11.3 km/h -999.0 mph /  -1607.7 km/h 89 % 0.00 in /  0 mm 0 W/m2
22:46 36.8 °F /  2.7 °C 33.9 °F /  1.1 °C 30.23 in /  1023.6 hPa South 7.0 mph /  11.3 km/h -999.0 mph /  -1607.7 km/h 89 % 0.00 in /  0 mm 0 W/m2
22:51 36.8 °F /  2.7 °C 33.9 °F /  1.1 °C 30.23 in /  1023.6 hPa South 7.0 mph /  11.3 km/h -999.0 mph /  -1607.7 km/h 89 % 0.00 in /  0 mm 0 W/m2
22:56 36.7 °F /  2.6 °C 34.0 °F /  1.1 °C 30.23 in /  1023.6 hPa SSE 8.0 mph /  12.9 km/h -999.0 mph /  -1607.7 km/h 90 % 0.00 in /  0 mm 0 W/m2
23:01 36.7 °F /  2.6 °C 34.0 °F /  1.1 °C 30.23 in /  1023.6 hPa SSE 8.0 mph /  12.9 km/h -999.0 mph /  -1607.7 km/h 90 % 0.00 in /  0 mm 0 W/m2
23:06 36.7 °F /  2.6 °C 34.0 °F /  1.1 °C 30.23 in /  1023.6 hPa SSE 8.0 mph /  12.9 km/h -999.0 mph /  -1607.7 km/h 90 % 0.00 in /  0 mm 0 W/m2
23:11 36.5 °F /  2.5 °C 34.1 °F /  1.2 °C 30.22 in /  1023.2 hPa SSE 8.0 mph /  12.9 km/h -999.0 mph /  -1607.7 km/h 91 % 0.00 in /  0 mm 0 W/m2
23:16 36.5 °F /  2.5 °C 34.1 °F /  1.2 °C 30.22 in /  1023.2 hPa SSE 8.0 mph /  12.9 km/h -999.0 mph /  -1607.7 km/h 91 % 0.00 in /  0 mm 0 W/m2
23:21 36.5 °F /  2.5 °C 34.1 °F /  1.2 °C 30.22 in /  1023.2 hPa SSE 8.0 mph /  12.9 km/h -999.0 mph /  -1607.7 km/h 91 % 0.00 in /  0 mm 0 W/m2
23:26 36.2 °F /  2.3 °C 33.8 °F /  1 °C 30.22 in /  1023.2 hPa SSE 7.0 mph /  11.3 km/h -999.0 mph /  -1607.7 km/h 91 % 0.00 in /  0 mm 0 W/m2
23:31 36.2 °F /  2.3 °C 33.8 °F /  1 °C 30.22 in /  1023.2 hPa SSE 7.0 mph /  11.3 km/h -999.0 mph /  -1607.7 km/h 91 % 0.00 in /  0 mm 0 W/m2
23:36 36.2 °F /  2.3 °C 33.8 °F /  1 °C 30.22 in /  1023.2 hPa SSE 7.0 mph /  11.3 km/h -999.0 mph /  -1607.7 km/h 91 % 0.00 in /  0 mm 0 W/m2
23:41 36.1 °F /  2.3 °C 33.7 °F /  0.9 °C 30.21 in /  1022.9 hPa SSE 5.0 mph /  8 km/h -999.0 mph /  -1607.7 km/h 91 % 0.00 in /  0 mm 0 W/m2
23:46 36.1 °F /  2.3 °C 33.7 °F /  0.9 °C 30.21 in /  1022.9 hPa SSE 5.0 mph /  8 km/h -999.0 mph /  -1607.7 km/h 91 % 0.00 in /  0 mm 0 W/m2
23:51 36.1 °F /  2.3 °C 33.7 °F /  0.9 °C 30.21 in /  1022.9 hPa SSE 5.0 mph /  8 km/h -999.0 mph /  -1607.7 km/h 91 % 0.00 in /  0 mm 0 W/m2
23:56 36.2 °F /  2.3 °C 33.8 °F /  1 °C 30.21 in /  1022.9 hPa South 4.0 mph /  6.4 km/h -999.0 mph /  -1607.7 km/h 91 % 0.00 in /  0 mm 0 W/m2
Delerius-Weather
Compliments of Weather Underground - 2.25 mb

Data updates at regular intervals.